CheckWX is a tool to help pilots better visualize weather data.  It is not intended as a substitute for an official pre-flight weather briefing.

11:02:28 UTC

6I2 METAR
Lebanon Springfield-George Hoerter Field Airport
Springfield, Kentucky, USA
Current

17 mins ago

K6I2 161045Z AUTO 14007KT 10SM CLR 23/22 A3009 RMK AO2
Observed
Jul-16 @ 10:45 UTC
Wind
  • 140° at 7 KTS
Visibility
10 SM
Flight Rules
VFR
Cloud Levels
  • Clear skies
Temperature
23°C / 73°F
Dewpoint
22°C / 72°F
Humidity
94%
Altimeter
30.09" Hg
Pressure
1018.92 hPa
Previous

37 mins ago

K6I2 161025Z AUTO 15006KT 10SM FEW120 23/22 A3009 RMK AO2
Observed
Jul-16 @ 10:25 UTC
Wind
  • 150° at 6 KTS
Visibility
10 SM
Flight Rules
VFR
Cloud Levels
  • Few at 12,000' AGL
Temperature
23°C / 73°F
Dewpoint
22°C / 72°F
Humidity
94%
Altimeter
30.09" Hg
Pressure
1018.92 hPa
Previous

57 mins ago

K6I2 161005Z AUTO 14007KT 10SM CLR 23/22 A3008 RMK AO2
Observed
Jul-16 @ 10:05 UTC
Wind
  • 140° at 7 KTS
Visibility
10 SM
Flight Rules
VFR
Cloud Levels
  • Clear skies
Temperature
23°C / 73°F
Dewpoint
22°C / 72°F
Humidity
94%
Altimeter
30.08" Hg
Pressure
1018.62 hPa